Time;durP1;ratioP1;P1;durP2;ratioP2;P2;SDS_P1;SDS_P2;PMS_P1;PMS_P2;Temp;Humidity;BMP_temperature;BMP_pressure;BME280_temperature;BME280_humidity;BME280_pressure;Samples;Min_cycle;Max_cycle;Signal;HPM_P1;HPM_P2
2023/10/02 00:01:24;;;;;;;;;19.33;17.33;;;;;21.01;65.00;101367.06;5076670;28;48074;-83
2023/10/02 00:04:16;;;;;;;;;23.00;21.33;;;;;21.00;64.73;101369.91;5078634;28;45214;-84
2023/10/02 00:06:37;;;;;;;;;22.00;20.00;;;;;20.89;65.06;101349.19;5078043;28;45185;-85
2023/10/02 00:09:05;;;;;;;;;25.00;20.33;;;;;20.97;65.06;101362.91;5077411;28;45437;-82
2023/10/02 00:11:41;;;;;;;;;18.67;18.00;;;;;20.96;65.38;101366.59;5076475;28;47932;-83
2023/10/02 00:14:18;;;;;;;;;24.00;21.00;;;;;20.94;65.40;101371.28;5077670;27;45388;-84
2023/10/02 00:17:04;;;;;;;;;21.00;18.67;;;;;20.85;65.67;101356.72;5078015;27;45332;-84
2023/10/02 00:19:46;;;;;;;;;25.67;20.67;;;;;20.82;65.69;101362.38;5075268;28;45380;-84
2023/10/02 00:22:35;;;;;;;;;24.33;20.00;;;;;20.76;65.67;101353.97;5077692;28;46386;-84
2023/10/02 00:25:16;;;;;;;;;20.33;19.33;;;;;20.79;65.96;101369.91;5078064;27;45243;-84
2023/10/02 00:27:46;;;;;;;;;18.67;18.67;;;;;20.79;66.19;101375.31;5077820;27;45342;-84
2023/10/02 00:30:13;;;;;;;;;19.00;18.00;;;;;20.53;66.28;101337.88;5058638;27;45587;-83
2023/10/02 00:32:41;;;;;;;;;23.00;18.67;;;;;20.70;66.47;101386.91;5057630;28;45429;-83
2023/10/02 00:35:10;;;;;;;;;23.67;20.67;;;;;20.63;66.67;101372.22;5056108;28;45400;-85
2023/10/02 00:37:51;;;;;;;;;19.00;17.33;;;;;20.50;66.66;101354.38;5057286;28;45258;-84
2023/10/02 00:40:22;;;;;;;;;26.00;19.33;;;;;20.61;67.08;101378.63;5058167;28;45516;-84
2023/10/02 00:42:55;;;;;;;;;18.67;18.00;;;;;20.49;66.79;101362.59;5059053;28;46430;-84
2023/10/02 00:45:29;;;;;;;;;22.33;20.00;;;;;20.44;66.97;101362.13;5058818;28;45323;-83
2023/10/02 00:48:24;;;;;;;;;20.00;17.00;;;;;20.48;67.12;101367.16;5055758;28;45303;-84
2023/10/02 00:50:49;;;;;;;;;19.33;17.67;;;;;20.44;67.10;101365.69;5056630;28;45606;-84
2023/10/02 00:53:15;;;;;;;;;23.67;20.67;;;;;20.49;67.10;101370.72;5056705;28;46187;-84
2023/10/02 00:55:43;;;;;;;;;20.67;17.67;;;;;20.46;67.41;101374.53;5056577;28;45219;-84
2023/10/02 00:58:11;;;;;;;;;19.67;16.67;;;;;20.31;67.21;101351.47;5056859;28;45436;-85
2023/10/02 01:00:36;;;;;;;;;21.33;19.33;;;;;20.33;67.12;101358.47;5057297;27;45516;-84
2023/10/02 01:03:14;;;;;;;;;23.33;19.67;;;;;20.32;67.15;101364.03;5057150;28;46437;-84
2023/10/02 01:05:59;;;;;;;;;19.67;19.67;;;;;20.11;67.66;101319.91;5056487;28;45463;-83
2023/10/02 01:08:46;;;;;;;;;23.00;21.00;;;;;19.96;67.47;101319.38;5055627;28;45441;-85
2023/10/02 01:11:15;;;;;;;;;26.00;16.33;;;;;20.30;67.67;101371.38;5056940;28;45440;-84
2023/10/02 01:13:41;;;;;;;;;20.00;16.67;;;;;20.23;68.10;101362.09;5056316;28;46288;-85
2023/10/02 01:16:08;;;;;;;;;17.33;13.33;;;;;20.07;67.92;101340.06;5056411;28;45398;-84
2023/10/02 01:18:38;;;;;;;;;17.33;17.00;;;;;20.19;68.12;101357.94;5058213;28;45389;-85
2023/10/02 01:21:12;;;;;;;;;25.67;18.67;;;;;20.18;68.35;101364.31;5077286;27;45339;-83
2023/10/02 01:24:10;;;;;;;;;13.00;12.00;;;;;20.13;68.22;101367.41;5056095;28;47030;-83
2023/10/02 01:26:42;;;;;;;;;18.00;16.00;;;;;20.03;68.77;101353.81;5056697;28;45279;-84
2023/10/02 01:29:10;;;;;;;;;22.00;16.67;;;;;20.07;68.74;101365.22;5056354;28;45207;-84
2023/10/02 01:31:45;;;;;;;;;23.00;17.33;;;;;19.96;68.79;101349.06;5055694;28;45575;-85
2023/10/02 01:34:33;;;;;;;;;21.33;12.33;;;;;19.99;69.07;101368.56;5055077;28;47162;-85
2023/10/02 01:37:00;;;;;;;;;18.67;17.67;;;;;19.94;69.09;101353.75;5055619;28;45462;-84
2023/10/02 01:39:25;;;;;;;;;18.33;16.67;;;;;19.95;69.20;101350.06;5056481;28;45381;-84
2023/10/02 01:41:53;;;;;;;;;23.67;19.33;;;;;19.93;69.05;101350.19;5056607;28;45329;-84
2023/10/02 01:44:22;;;;;;;;;20.67;19.67;;;;;19.96;69.07;101354.47;5056109;28;45343;-84
2023/10/02 01:46:52;;;;;;;;;22.33;19.33;;;;;19.89;69.08;101348.69;5055844;28;45305;-83
2023/10/02 01:49:25;;;;;;;;;20.33;19.67;;;;;19.86;69.00;101335.47;5063831;28;45289;-84
2023/10/02 01:52:01;;;;;;;;;19.00;16.67;;;;;19.74;68.74;101323.84;5076517;27;46023;-84
2023/10/02 01:54:29;;;;;;;;;19.67;19.00;;;;;19.98;69.19;101347.09;5069647;28;48028;-84
2023/10/02 01:56:56;;;;;;;;;24.67;18.67;;;;;19.80;68.72;101327.03;5056652;28;45433;-85
2023/10/02 01:59:24;;;;;;;;;18.33;18.00;;;;;19.89;68.89;101340.59;5056005;28;45386;-82
2023/10/02 02:01:56;;;;;;;;;22.33;19.33;;;;;19.77;68.78;101317.34;5056126;28;45580;-84
2023/10/02 02:04:23;;;;;;;;;20.00;17.00;;;;;19.90;69.15;101333.34;5058685;28;45445;-84
2023/10/02 02:06:51;;;;;;;;;21.33;19.00;;;;;19.90;69.25;101336.06;5075980;27;45437;-84
2023/10/02 02:09:37;;;;;;;;;18.00;18.00;;;;;19.67;68.63;101297.50;5074279;27;45318;-84
2023/10/02 02:12:10;;;;;;;;;28.33;22.00;;;;;19.71;68.92;101307.06;5055910;28;45436;-84
2023/10/02 02:14:52;;;;;;;;;17.67;17.67;;;;;19.76;69.15;101321.00;5054551;28;46837;-84
2023/10/02 02:17:37;;;;;;;;;21.33;18.67;;;;;19.87;69.10;101333.63;5055657;28;45408;-84
2023/10/02 02:20:43;;;;;;;;;19.00;18.00;;;;;19.86;69.51;101330.06;5071395;28;45366;-84
2023/10/02 02:23:07;;;;;;;;;25.00;20.00;;;;;19.85;69.29;101325.66;5060547;28;45572;-85
2023/10/02 02:25:32;;;;;;;;;13.33;9.67;;;;;19.82;69.25;101322.38;5055321;28;47334;-84
2023/10/02 02:27:57;;;;;;;;;16.00;14.33;;;;;19.64;69.33;101295.03;5054310;28;45356;-83
2023/10/02 02:30:23;;;;;;;;;24.67;20.67;;;;;19.67;68.88;101300.22;5054954;28;45497;-83
2023/10/02 02:32:54;;;;;;;;;19.67;17.00;;;;;19.69;69.41;101307.19;5055931;28;45591;-84
2023/10/02 02:35:21;;;;;;;;;23.00;19.67;;;;;19.78;69.68;101327.13;5056572;28;47158;-84
2023/10/02 02:37:46;;;;;;;;;25.00;19.67;;;;;19.72;69.64;101311.47;5058855;28;45299;-84
2023/10/02 02:40:25;;;;;;;;;17.33;17.33;;;;;19.74;69.58;101323.00;5059306;28;45491;-83
2023/10/02 02:42:54;;;;;;;;;20.00;17.33;;;;;19.70;69.79;101317.00;5058993;28;45397;-83
2023/10/02 02:45:29;;;;;;;;;24.00;20.33;;;;;19.67;69.75;101328.06;5058425;28;45310;-84
2023/10/02 02:48:04;;;;;;;;;17.33;15.00;;;;;19.64;70.36;101327.44;5058712;28;45523;-83
2023/10/02 02:50:37;;;;;;;;;17.67;15.00;;;;;19.63;69.91;101323.00;5058300;28;45370;-84
2023/10/02 02:53:22;;;;;;;;;21.00;18.67;;;;;19.65;69.92;101321.03;5058696;28;45271;-84
2023/10/02 02:56:23;;;;;;;;;19.33;19.00;;;;;19.54;69.86;101297.63;5074449;28;47430;-82
2023/10/02 02:58:55;;;;;;;;;19.00;16.33;;;;;19.65;70.11;101318.34;5058544;28;45428;-82
2023/10/02 03:01:22;;;;;;;;;22.33;17.67;;;;;19.63;70.19;101317.63;5058738;28;45376;-84
2023/10/02 03:03:58;;;;;;;;;20.00;18.00;;;;;19.57;70.18;101307.34;5058852;28;45383;-84
2023/10/02 03:06:24;;;;;;;;;16.67;14.33;;;;;19.60;70.08;101315.19;5058220;28;46532;-82
2023/10/02 03:08:53;;;;;;;;;15.00;15.00;;;;;19.58;70.34;101312.63;5058187;28;45394;-84
2023/10/02 03:11:19;;;;;;;;;21.00;16.33;;;;;19.36;70.13;101274.84;5059961;28;45204;-83
2023/10/02 03:13:49;;;;;;;;;23.00;16.67;;;;;19.47;70.10;101292.88;5079160;28;45374;-84
2023/10/02 03:16:19;;;;;;;;;22.00;17.33;;;;;19.54;70.40;101307.56;5078547;27;45975;-84
2023/10/02 03:18:48;;;;;;;;;18.33;16.33;;;;;19.50;70.57;101308.78;5075732;27;45238;-84
2023/10/02 03:21:23;;;;;;;;;18.00;14.00;;;;;19.47;70.32;101301.81;5058389;28;45350;-84
2023/10/02 03:23:50;;;;;;;;;21.00;18.00;;;;;19.45;70.73;101314.56;5058062;28;45463;-84
2023/10/02 03:26:27;;;;;;;;;19.00;18.00;;;;;19.42;70.66;101307.59;5057984;28;46245;-83
2023/10/02 03:29:02;;;;;;;;;22.00;18.67;;;;;19.33;70.65;101291.28;5061662;28;45353;-83
2023/10/02 03:31:51;;;;;;;;;25.00;19.00;;;;;19.35;70.93;101302.81;5078845;27;45388;-84
2023/10/02 03:34:29;;;;;;;;;16.33;15.00;;;;;19.08;70.83;101254.69;5078785;27;45543;-83
2023/10/02 03:36:59;;;;;;;;;19.33;16.67;;;;;19.24;71.21;101289.34;5076911;28;46924;-84
2023/10/02 03:42:21;;;;;;;;;14.33;13.00;;;;;19.29;71.12;101297.94;5075814;28;45215;-83
2023/10/02 03:44:57;;;;;;;;;17.33;16.00;;;;;19.15;71.10;101283.72;5080067;27;45274;-82
2023/10/02 03:47:23;;;;;;;;;20.67;18.67;;;;;19.27;71.63;101294.47;5077565;27;45418;-84
2023/10/02 03:49:50;;;;;;;;;21.00;19.67;;;;;19.22;71.87;101294.00;5077525;27;45332;-84
2023/10/02 03:52:19;;;;;;;;;18.00;14.67;;;;;19.10;71.72;101283.22;5078105;27;45365;-83
2023/10/02 03:54:45;;;;;;;;;23.00;17.33;;;;;19.10;71.76;101276.97;5079265;27;45359;-83
2023/10/02 04:00:00;;;;;;;;;18.00;16.00;;;;;18.80;71.58;101232.66;5078543;28;45389;-84
2023/10/02 04:02:26;;;;;;;;;20.67;18.67;;;;;19.11;71.63;101284.09;5066586;27;45254;-84
2023/10/02 04:04:51;;;;;;;;;21.00;20.33;;;;;19.16;71.37;101289.97;5058394;28;45258;-83
2023/10/02 04:07:20;;;;;;;;;19.00;19.00;;;;;19.17;71.21;101294.38;5056149;28;48582;-84
2023/10/02 04:09:50;;;;;;;;;20.67;18.33;;;;;18.98;71.80;101270.75;5070990;28;45551;-84
2023/10/02 04:12:19;;;;;;;;;20.00;18.67;;;;;19.09;71.28;101277.97;5076985;28;45276;-83
2023/10/02 04:14:45;;;;;;;;;16.33;14.33;;;;;18.92;71.63;101248.81;5078155;27;45294;-84
2023/10/02 04:19:48;;;;;;;;;15.67;15.67;;;;;19.05;71.72;101284.59;5064474;28;45412;-84
2023/10/02 04:22:25;;;;;;;;;18.67;16.00;;;;;19.02;71.97;101292.94;5056521;28;45468;-84
2023/10/02 04:24:54;;;;;;;;;19.67;16.67;;;;;18.95;72.02;101281.78;5056034;28;45493;-84
2023/10/02 04:32:48;;;;;;;;;18.33;15.33;;;;;18.93;71.70;101280.19;5057314;28;45220;-83
2023/10/02 04:37:59;;;;;;;;;18.67;14.67;;;;;18.94;72.19;101273.81;5056852;28;45774;-83
2023/10/02 04:40:37;;;;;;;;;22.00;17.33;;;;;18.86;72.64;101263.63;5056593;28;45320;-84
2023/10/02 04:43:19;;;;;;;;;21.33;18.33;;;;;18.85;72.38;101265.47;5057109;28;45387;-84
2023/10/02 04:45:52;;;;;;;;;19.67;18.33;;;;;18.91;72.57;101279.47;5056206;28;45296;-84
2023/10/02 04:48:25;;;;;;;;;26.00;21.00;;;;;18.73;72.33;101255.66;5059035;28;46604;-83
2023/10/02 04:50:53;;;;;;;;;22.33;17.67;;;;;18.83;72.69;101271.97;5076937;28;45476;-84
2023/10/02 04:53:22;;;;;;;;;19.00;14.33;;;;;18.75;72.84;101275.28;5076774;27;45368;-84
2023/10/02 04:55:49;;;;;;;;;26.67;20.67;;;;;18.66;72.39;101276.00;5077753;28;45493;-84
2023/10/02 04:58:20;;;;;;;;;22.33;16.00;;;;;18.61;73.09;101267.38;5074647;28;48130;-85
2023/10/02 05:03:49;;;;;;;;;22.00;19.33;;;;;18.49;73.92;101273.75;5076913;27;45227;-84
2023/10/02 05:06:39;;;;;;;;;17.00;14.67;;;;;18.24;74.11;101232.59;5077471;27;45420;-85
2023/10/02 05:11:46;;;;;;;;;22.67;18.33;;;;;18.36;74.00;101256.81;5076758;28;45407;-83
2023/10/02 05:14:14;;;;;;;;;22.67;18.33;;;;;17.81;74.23;101191.13;5077190;27;45350;-83
2023/10/02 05:16:42;;;;;;;;;18.67;17.00;;;;;18.20;74.50;101247.25;5077269;27;45507;-84
2023/10/02 05:19:09;;;;;;;;;18.33;15.00;;;;;18.08;74.56;101221.28;5075168;27;45487;-83
2023/10/02 05:21:36;;;;;;;;;21.33;17.33;;;;;18.19;74.93;101248.22;5063467;27;45356;-84
2023/10/02 05:24:13;;;;;;;;;16.00;11.00;;;;;18.19;74.98;101256.31;5058506;28;45444;-84
2023/10/02 05:26:44;;;;;;;;;21.00;18.33;;;;;18.10;74.76;101246.28;5058059;28;45514;-83
2023/10/02 05:29:17;;;;;;;;;22.67;16.00;;;;;18.10;74.92;101240.91;5077628;28;45390;-83
2023/10/02 05:31:46;;;;;;;;;25.67;15.67;;;;;17.98;74.64;101233.75;5086049;28;45180;-85
2023/10/02 05:34:22;;;;;;;;;26.33;21.67;;;;;18.21;74.57;101266.97;5071810;27;45417;-85
2023/10/02 05:37:11;;;;;;;;;27.33;19.00;;;;;18.21;74.57;101264.25;5063718;28;45461;-86
2023/10/02 05:39:40;;;;;;;;;21.00;16.33;;;;;18.10;74.40;101251.66;5058267;28;45649;-87
2023/10/02 05:42:15;;;;;;;;;21.00;17.00;;;;;18.17;74.61;101262.78;5057503;28;45749;-84
2023/10/02 05:44:44;;;;;;;;;23.33;17.00;;;;;18.12;74.85;101268.53;5057838;28;45287;-87
2023/10/02 05:47:16;;;;;;;;;19.67;18.67;;;;;17.64;74.82;101195.06;5073198;28;45425;-86
2023/10/02 05:49:48;;;;;;;;;23.67;19.33;;;;;18.06;74.98;101270.84;5077593;27;45544;-84
2023/10/02 05:52:14;;;;;;;;;25.00;16.67;;;;;17.75;75.36;101222.06;5076051;28;45690;-84
2023/10/02 05:54:47;;;;;;;;;17.00;17.00;;;;;18.03;75.12;101266.56;5077059;28;45331;-84
2023/10/02 05:57:13;;;;;;;;;18.00;14.00;;;;;18.06;74.69;101277.06;5075370;28;45680;-84
2023/10/02 05:59:47;;;;;;;;;21.00;20.67;;;;;17.97;74.80;101253.56;5073179;28;45444;-83
2023/10/02 06:02:18;;;;;;;;;28.67;23.33;;;;;18.02;74.53;101263.97;5076526;27;45568;-85
2023/10/02 06:04:52;;;;;;;;;15.00;11.00;;;;;18.11;74.63;101260.59;5076675;28;45356;-85
2023/10/02 06:10:09;;;;;;;;;25.67;18.67;;;;;18.07;74.00;101240.25;5081558;28;45303;-83
2023/10/02 06:12:36;;;;;;;;;31.67;20.33;;;;;18.11;73.58;101247.13;5080244;28;45421;-85
2023/10/02 06:15:38;;;;;;;;;18.00;17.33;;;;;18.16;73.22;101245.78;5077511;27;45384;-86
2023/10/02 06:17:51;;;;;;;;;22.00;19.67;;;;;18.33;73.03;101279.47;5062341;28;45576;-86
2023/10/02 06:20:17;;;;;;;;;23.67;21.00;;;;;18.35;73.17;101276.66;5075762;28;46377;-88
2023/10/02 06:22:47;;;;;;;;;21.67;18.67;;;;;18.13;72.64;101224.50;5079266;28;45671;-84
2023/10/02 06:25:17;;;;;;;;;28.00;21.33;;;;;18.40;72.63;101269.09;5081176;27;45408;-85
2023/10/02 06:27:47;;;;;;;;;23.33;20.00;;;;;18.38;71.83;101252.22;5095827;27;45468;-83
2023/10/02 06:30:19;;;;;;;;;25.67;21.33;;;;;18.09;71.72;101203.31;5078688;28;47147;-85
2023/10/02 06:32:53;;;;;;;;;19.67;15.33;;;;;18.21;71.55;101211.28;5082472;27;45700;-84
2023/10/02 06:35:26;;;;;;;;;22.67;22.00;;;;;18.60;71.02;101275.59;5081058;28;45309;-83
2023/10/02 06:37:52;;;;;;;;;28.00;21.00;;;;;18.77;70.57;101283.25;5078395;28;45544;-83
2023/10/02 06:40:23;;;;;;;;;29.00;23.00;;;;;18.78;70.56;101291.22;5067096;27;46385;-84
2023/10/02 06:42:49;;;;;;;;;28.33;22.33;;;;;19.06;69.56;101283.59;5059555;28;45476;-83
2023/10/02 06:45:20;;;;;;;;;23.00;21.00;;;;;19.29;68.49;101290.69;5079130;28;45443;-83
2023/10/02 06:47:48;;;;;;;;;23.00;21.00;;;;;19.29;68.11;101296.09;5079832;27;45230;-82
2023/10/02 06:50:31;;;;;;;;;33.00;24.33;;;;;19.18;68.36;101290.72;5079409;27;46573;-82
2023/10/02 06:53:00;;;;;;;;;17.33;15.00;;;;;19.06;68.52;101281.78;5077498;27;45626;-81
2023/10/02 06:55:26;;;;;;;;;26.00;22.67;;;;;19.05;68.53;101276.50;5074890;28;45377;-82
2023/10/02 06:57:52;;;;;;;;;22.33;21.00;;;;;19.12;68.73;101289.34;5078815;28;45557;-82
2023/10/02 07:00:19;;;;;;;;;28.67;25.67;;;;;19.26;68.14;101290.94;5078730;27;46050;-79
2023/10/02 07:02:58;;;;;;;;;30.00;23.33;;;;;19.32;67.71;101293.13;5076782;27;45416;-80
2023/10/02 07:05:32;;;;;;;;;23.67;21.00;;;;;19.37;67.76;101290.91;5078828;27;45404;-81
2023/10/02 07:08:01;;;;;;;;;26.00;22.67;;;;;19.24;67.34;101270.47;5078880;27;45377;-78
2023/10/02 07:10:41;;;;;;;;;23.33;20.67;;;;;19.44;67.34;101299.38;5073021;27;45372;-77
2023/10/02 07:13:18;;;;;;;;;25.00;22.33;;;;;19.45;67.14;101299.25;5078237;28;45444;-80
2023/10/02 07:15:45;;;;;;;;;16.33;14.00;;;;;19.56;66.46;101309.19;5074071;28;45351;-80
2023/10/02 07:18:12;;;;;;;;;25.33;23.00;;;;;19.54;66.48;101296.78;5060122;28;45318;-82
2023/10/02 07:20:42;;;;;;;;;29.00;27.00;;;;;19.52;66.75;101296.88;5067391;28;46310;-82
2023/10/02 07:23:13;;;;;;;;;30.67;23.67;;;;;19.69;66.14;101298.25;5077409;28;45886;-82
2023/10/02 07:25:41;;;;;;;;;25.00;22.67;;;;;19.62;65.65;101284.38;5079129;27;45222;-82
2023/10/02 07:28:08;;;;;;;;;24.00;21.33;;;;;19.60;65.51;101283.66;5078687;27;45542;-82
2023/10/02 07:30:33;;;;;;;;;29.67;20.33;;;;;19.72;65.29;101292.56;5078258;27;46035;-80
2023/10/02 07:33:03;;;;;;;;;24.00;22.00;;;;;19.74;65.55;101299.56;5078124;28;45440;-82
2023/10/02 07:35:29;;;;;;;;;25.67;22.00;;;;;19.83;65.46;101294.38;5078780;27;45364;-79
2023/10/02 07:38:00;;;;;;;;;28.67;23.67;;;;;19.92;64.86;101293.59;5075070;27;45231;-82
2023/10/02 07:40:46;;;;;;;;;28.00;21.00;;;;;19.92;64.83;101289.06;5058247;28;45595;-81
2023/10/02 07:43:11;;;;;;;;;27.67;25.00;;;;;19.73;64.73;101275.41;5057779;28;45476;-80
2023/10/02 07:45:37;;;;;;;;;24.67;22.67;;;;;19.79;64.52;101287.50;5058199;28;45349;-80
2023/10/02 07:48:10;;;;;;;;;20.00;20.00;;;;;19.67;64.50;101271.38;5062251;28;61526;-79
2023/10/02 07:50:38;;;;;;;;;29.33;22.67;;;;;19.85;64.57;101293.25;5077695;28;45554;-82
2023/10/02 07:53:06;;;;;;;;;32.67;25.67;;;;;19.93;64.02;101282.69;5078136;27;45290;-81
2023/10/02 07:55:46;;;;;;;;;23.67;23.00;;;;;19.92;63.70;101285.50;5076967;27;45543;-81
2023/10/02 07:58:13;;;;;;;;;18.67;17.67;;;;;19.87;63.88;101285.03;5078264;27;45391;-80
2023/10/02 08:00:43;;;;;;;;;28.00;24.00;;;;;19.92;63.56;101286.38;5077833;27;45941;-82
2023/10/02 08:03:31;;;;;;;;;29.33;24.67;;;;;19.90;63.69;101291.03;5077692;27;45476;-81
2023/10/02 08:06:00;;;;;;;;;22.00;18.33;;;;;19.88;63.47;101275.94;5063622;28;45443;-82
2023/10/02 08:08:33;;;;;;;;;17.00;15.33;;;;;19.90;63.76;101282.06;5060743;27;45480;-82
2023/10/02 08:11:01;;;;;;;;;24.67;22.00;;;;;19.94;63.11;101286.25;5072736;28;45962;-82
2023/10/02 08:13:33;;;;;;;;;28.33;24.67;;;;;20.04;62.80;101292.56;5067315;28;45586;-84
2023/10/02 08:16:08;;;;;;;;;28.00;23.67;;;;;19.98;63.20;101299.34;5097571;27;45318;-81
2023/10/02 08:18:55;;;;;;;;;27.33;24.67;;;;;19.96;63.19;101295.91;5075679;28;45239;-82
2023/10/02 08:21:23;;;;;;;;;28.67;26.67;;;;;19.87;63.47;101294.00;5076874;28;45401;-78
2023/10/02 08:23:52;;;;;;;;;31.33;21.00;;;;;19.73;63.46;101265.47;5077511;27;45436;-82
2023/10/02 08:26:18;;;;;;;;;19.33;19.33;;;;;19.99;63.19;101287.56;5071344;28;45412;-81
2023/10/02 08:28:45;;;;;;;;;27.00;24.67;;;;;20.04;62.86;101298.81;5073487;27;45704;-81
2023/10/02 08:31:13;;;;;;;;;28.67;23.67;;;;;19.99;63.26;101302.91;5078336;28;45339;-84
2023/10/02 08:33:43;;;;;;;;;28.00;21.67;;;;;19.98;62.92;101293.94;5077474;28;45946;-85
2023/10/02 08:36:09;;;;;;;;;27.33;24.33;;;;;20.18;62.92;101304.88;5071259;27;45444;-85
2023/10/02 08:38:36;;;;;;;;;30.33;24.67;;;;;20.31;62.23;101305.56;5075020;28;45589;-83
2023/10/02 08:41:04;;;;;;;;;30.67;22.67;;;;;20.37;62.02;101298.78;5079339;27;46002;-83
2023/10/02 08:43:43;;;;;;;;;28.67;24.67;;;;;20.35;62.12;101282.72;5078928;27;45308;-85
2023/10/02 08:46:21;;;;;;;;;29.67;25.00;;;;;20.56;61.48;101293.50;5073981;27;45365;-86
2023/10/02 08:48:54;;;;;;;;;24.67;18.67;;;;;20.59;61.49;101294.13;5072929;28;45578;-86
2023/10/02 08:51:29;;;;;;;;;25.00;21.33;;;;;20.70;61.45;101290.47;5067115;28;46030;-86
2023/10/02 08:53:57;;;;;;;;;22.33;22.33;;;;;20.77;60.77;101285.41;5080851;28;46077;-83
2023/10/02 08:56:23;;;;;;;;;28.67;18.67;;;;;20.91;60.70;101283.19;5078413;27;45279;-84
2023/10/02 09:01:34;;;;;;;;;30.33;28.00;;;;;21.13;59.74;101276.72;5065248;28;45867;-84
2023/10/02 09:06:44;;;;;;;;;32.00;26.67;;;;;21.08;59.55;101238.41;5084312;28;45329;-86
2023/10/02 09:09:26;;;;;;;;;31.33;25.33;;;;;21.36;59.23;101284.66;5068364;27;45264;-86
2023/10/02 09:11:58;;;;;;;;;26.67;23.67;;;;;21.44;58.86;101279.38;5062698;28;45392;-85
2023/10/02 09:19:53;;;;;;;;;30.67;26.00;;;;;21.71;57.92;101289.53;5059330;28;45413;-84
2023/10/02 09:22:20;;;;;;;;;32.67;29.33;;;;;21.81;57.59;101281.44;5055988;28;47245;-81
2023/10/02 09:27:58;;;;;;;;;32.67;29.67;;;;;21.91;57.09;101269.59;5073463;28;45404;-82
2023/10/02 09:33:07;;;;;;;;;28.33;28.33;;;;;21.95;57.00;101262.03;5066760;28;45388;-81
2023/10/02 09:35:44;;;;;;;;;31.33;30.00;;;;;21.99;55.98;101256.19;5077032;27;45371;-83
2023/10/02 09:38:13;;;;;;;;;26.00;24.67;;;;;22.02;56.40;101253.22;5077274;27;45488;-80
2023/10/02 09:41:15;;;;;;;;;30.00;27.33;;;;;22.17;55.46;101261.78;5076236;28;45434;-85
2023/10/02 09:43:41;;;;;;;;;21.00;19.67;;;;;22.04;55.62;101232.25;5077199;28;45487;-80
2023/10/02 09:46:20;;;;;;;;;27.00;23.67;;;;;22.28;55.43;101256.22;5075917;28;45431;-80
2023/10/02 09:49:09;;;;;;;;;29.33;25.00;;;;;22.32;55.44;101235.94;5079570;27;45342;-81
2023/10/02 09:54:51;;;;;;;;;27.33;22.67;;;;;22.61;55.58;101235.00;5076108;28;45674;-86
2023/10/02 09:57:25;;;;;;;;;29.33;26.00;;;;;22.77;54.86;101237.06;5075627;27;45417;-80
2023/10/02 09:59:54;;;;;;;;;27.33;23.67;;;;;22.77;54.78;101232.50;5074093;28;45323;-80
2023/10/02 10:10:46;;;;;;;;;33.33;26.33;;;;;23.24;53.37;101229.72;5068874;28;45366;-82
2023/10/02 10:13:31;;;;;;;;;25.00;25.00;;;;;23.39;53.19;101227.31;5076049;27;45291;-80
2023/10/02 10:16:23;;;;;;;;;27.00;23.67;;;;;23.55;52.49;101225.63;5076875;27;46179;-85
2023/10/02 10:21:57;;;;;;;;;28.33;26.33;;;;;23.71;52.01;101199.69;5076627;27;45384;-81
2023/10/02 10:24:56;;;;;;;;;25.67;25.33;;;;;24.05;52.11;101214.22;5071595;28;45223;-80
2023/10/02 10:27:37;;;;;;;;;25.33;23.67;;;;;24.34;50.97;101213.06;5059765;27;45612;-82
2023/10/02 10:35:38;;;;;;;;;24.67;21.00;;;;;24.99;49.40;101202.53;5077619;27;45428;-81
2023/10/02 10:38:25;;;;;;;;;23.00;21.00;;;;;25.19;49.15;101206.72;5076014;27;45463;-82
2023/10/02 10:40:55;;;;;;;;;29.00;21.00;;;;;25.12;48.04;101181.16;5076050;27;45418;-81
2023/10/02 10:46:12;;;;;;;;;28.00;23.75;;;;;25.62;47.50;101182.94;5076289;28;45478;-83
2023/10/02 10:48:40;;;;;;;;;27.00;23.33;;;;;25.99;46.80;101189.78;5077148;27;46224;-83
2023/10/02 10:51:20;;;;;;;;;22.50;21.75;;;;;26.01;46.94;101138.69;5079959;27;45542;-85
2023/10/02 10:53:52;;;;;;;;;25.25;22.00;;;;;26.57;45.79;101164.13;5083335;27;45455;-85
2023/10/02 10:56:18;;;;;;;;;23.25;22.75;;;;;26.81;44.94;101182.25;5087588;28;45520;-85
2023/10/02 10:58:51;;;;;;;;;28.50;28.00;;;;;27.14;44.09;101174.81;5081917;27;48237;-84
2023/10/02 11:01:16;;;;;;;;;22.75;20.00;;;;;27.44;43.87;101178.53;5083869;27;45164;-84
2023/10/02 11:03:49;;;;;;;;;24.75;18.75;;;;;27.69;42.57;101168.28;5075979;28;49823;-85
2023/10/02 11:06:16;;;;;;;;;26.25;23.25;;;;;27.96;42.86;101166.84;5077468;27;45669;-85
2023/10/02 11:08:44;;;;;;;;;29.00;24.50;;;;;28.33;41.69;101146.84;5078247;27;45519;-84
2023/10/02 11:11:19;;;;;;;;;22.25;18.75;;;;;28.72;41.20;101146.53;5078044;28;45583;-84
2023/10/02 11:14:20;;;;;;;;;27.50;24.50;;;;;28.59;40.80;101127.19;5079322;27;45389;-83
2023/10/02 11:16:39;;;;;;;;;29.50;24.25;;;;;28.85;40.56;101154.06;5076011;27;46344;-85
2023/10/02 11:19:21;;;;;;;;;24.75;24.25;;;;;28.87;40.70;101138.28;5079569;27;45385;-87
2023/10/02 11:22:14;;;;;;;;;29.00;25.00;;;;;29.20;40.06;101145.03;5079535;27;45322;-84
2023/10/02 11:25:18;;;;;;;;;18.00;17.25;;;;;29.56;40.12;101134.06;5079788;28;45347;-84
2023/10/02 11:27:56;;;;;;;;;35.00;28.25;;;;;29.94;38.45;101150.16;5058206;28;45729;-84
2023/10/02 11:30:31;;;;;;;;;32.00;27.25;;;;;30.19;37.74;101134.13;5076411;28;45575;-87
2023/10/02 11:33:03;;;;;;;;;26.20;26.20;;;;;30.54;38.10;101146.78;5080094;27;45267;-89
2023/10/02 11:35:28;;;;;;;;;24.75;23.25;;;;;30.42;37.12;101147.56;5068491;28;45372;-86
2023/10/02 11:37:55;;;;;;;;;30.50;27.00;;;;;30.35;36.81;101131.06;5083895;27;45423;-87
2023/10/02 11:40:24;;;;;;;;;30.00;27.50;;;;;30.45;37.23;101137.00;5081937;28;47875;-82
2023/10/02 11:42:51;;;;;;;;;30.60;25.00;;;;;30.39;36.34;101131.50;5083308;28;45416;-86
2023/10/02 11:45:17;;;;;;;;;32.25;26.25;;;;;30.13;37.76;101126.69;5080414;27;45412;-84
2023/10/02 11:47:42;;;;;;;;;27.50;24.25;;;;;30.17;37.68;101120.59;5080560;27;45533;-86
2023/10/02 11:50:08;;;;;;;;;26.00;23.00;;;;;30.15;37.74;101143.81;5080158;27;46323;-86
2023/10/02 11:52:33;;;;;;;;;26.00;22.50;;;;;30.05;37.28;101099.38;5079904;27;45310;-86
2023/10/02 11:54:59;;;;;;;;;31.25;24.50;;;;;30.58;37.09;101135.38;5078235;28;45343;-85
2023/10/02 11:57:24;;;;;;;;;28.75;22.75;;;;;30.96;36.27;101133.88;5073405;27;45678;-84
2023/10/02 11:59:51;;;;;;;;;26.00;20.00;;;;;31.58;35.48;101123.69;5079927;27;46189;-81
2023/10/02 12:02:18;;;;;;;;;25.80;22.00;;;;;32.10;33.83;101078.78;5080646;27;45429;-87
2023/10/02 12:04:44;;;;;;;;;27.00;18.80;;;;;32.82;33.13;101086.00;5082565;28;45252;-82
2023/10/02 12:07:15;;;;;;;;;30.50;21.00;;;;;33.82;31.83;101110.94;5072713;28;45536;-83
2023/10/02 12:09:43;;;;;;;;;27.20;23.40;;;;;34.66;30.93;101089.25;5079907;28;45412;-81
2023/10/02 12:12:11;;;;;;;;;24.00;18.20;;;;;35.82;29.25;101090.69;5083432;27;45494;-83
2023/10/02 12:14:39;;;;;;;;;12.40;8.80;;;;;36.72;27.88;101102.13;5076593;28;45511;-83
2023/10/02 12:17:05;;;;;;;;;23.20;20.20;;;;;37.46;27.07;101096.63;5066825;28;45428;-82
2023/10/02 12:19:36;;;;;;;;;26.50;19.50;;;;;37.65;26.63;101072.25;5067270;28;46032;-83
2023/10/02 12:22:05;;;;;;;;;25.80;20.80;;;;;37.95;25.50;101083.84;5074944;28;45463;-82
2023/10/02 12:24:31;;;;;;;;;20.40;16.80;;;;;38.57;25.18;101086.38;5071148;28;45312;-85
2023/10/02 12:26:57;;;;;;;;;24.20;20.60;;;;;38.90;24.35;101054.78;5078825;27;45671;-84
2023/10/02 12:29:24;;;;;;;;;20.25;18.75;;;;;39.12;24.40;101093.69;5078909;27;45464;-84
2023/10/02 12:31:51;;;;;;;;;22.60;18.60;;;;;39.11;24.38;101091.16;5079235;28;45307;-84
2023/10/02 12:34:17;;;;;;;;;19.00;17.60;;;;;39.79;23.85;101095.94;5079348;27;45519;-85
2023/10/02 12:36:44;;;;;;;;;23.60;19.80;;;;;40.04;23.48;101069.38;5080779;27;45506;-85